Wetterdaten: Donnerstag, 18.04.2013
Datum Zeit Temperatur Luftfeuchte Regen Wind Richtung Richtung Taupunkt Windchill Windben
18.04.2013 00:03 7,6 C 86 % 0,0 l/m 0,0 km/h (0 Bft) W 270 5,4 C 7,3 C 0,0 km/h (0 Bft)
18.04.2013 00:08 7,4 C 85 % 0,0 l/m 0,0 km/h (0 Bft) S 180 5,0 C 7,2 C 0,0 km/h (0 Bft)
18.04.2013 00:13 7,4 C 86 % 0,0 l/m 0,0 km/h (0 Bft) SO 135 5,2 C 7,1 C 0,0 km/h (0 Bft)
18.04.2013 00:18 7,1 C 86 % 0,0 l/m 0,0 km/h (0 Bft) W-SW 247 4,9 C 6,9 C 0,0 km/h (0 Bft)
18.04.2013 00:23 7,2 C 86 % 0,0 l/m 0,0 km/h (0 Bft) SW 225 5,0 C 6,9 C 0,0 km/h (0 Bft)
18.04.2013 00:28 7,1 C 86 % 0,0 l/m 0,0 km/h (0 Bft) W-SW 247 4,9 C 6,8 C 0,0 km/h (0 Bft)
18.04.2013 00:33 7,0 C 86 % 0,0 l/m 0,0 km/h (0 Bft) W-SW 247 4,8 C 6,8 C 0,0 km/h (0 Bft)
18.04.2013 00:38 7,0 C 86 % 0,0 l/m 0,0 km/h (0 Bft) S 180 4,8 C 6,7 C 0,0 km/h (0 Bft)
18.04.2013 00:43 7,1 C 87 % 0,0 l/m 0,0 km/h (0 Bft) SW 225 5,1 C 6,8 C 0,0 km/h (0 Bft)
18.04.2013 00:48 7,2 C 87 % 0,0 l/m 0,0 km/h (0 Bft) W-NW 292 5,2 C 6,9 C 0,0 km/h (0 Bft)
18.04.2013 00:53 7,1 C 87 % 0,0 l/m 0,0 km/h (0 Bft) W-NW 292 5,1 C 7,0 C 0,0 km/h (0 Bft)
18.04.2013 00:58 7,1 C 87 % 0,0 l/m 0,0 km/h (0 Bft) S 180 5,1 C 7,0 C 0,0 km/h (0 Bft)
18.04.2013 01:03 7,2 C 87 % 0,0 l/m 0,0 km/h (0 Bft) W 270 5,2 C 7,0 C 0,0 km/h (0 Bft)
18.04.2013 01:08 7,4 C 88 % 0,0 l/m 0,0 km/h (0 Bft) W-SW 247 5,5 C 7,1 C 0,0 km/h (0 Bft)
18.04.2013 01:13 7,4 C 88 % 0,0 l/m 0,0 km/h (0 Bft) W 270 5,5 C 7,2 C 0,0 km/h (0 Bft)
18.04.2013 01:18 7,4 C 87 % 0,0 l/m 0,0 km/h (0 Bft) SO 135 5,4 C 7,4 C 0,0 km/h (0 Bft)
18.04.2013 01:23 7,4 C 87 % 0,0 l/m 0,0 km/h (0 Bft) S-SO 157 5,4 C 7,4 C 0,0 km/h (0 Bft)
18.04.2013 01:28 7,5 C 88 % 0,0 l/m 0,2 km/h (0 Bft) NO 45 5,6 C 7,6 C 0,0 km/h (0 Bft)
18.04.2013 01:33 7,5 C 88 % 0,0 l/m 0,2 km/h (0 Bft) O-SO 112 5,6 C 7,5 C 0,0 km/h (0 Bft)
18.04.2013 01:38 7,4 C 88 % 0,0 l/m 0,0 km/h (0 Bft) W-SW 247 5,5 C 7,4 C 0,0 km/h (0 Bft)
18.04.2013 01:43 7,4 C 88 % 0,0 l/m 0,0 km/h (0 Bft) S-SW 202 5,5 C 7,3 C 0,0 km/h (0 Bft)
18.04.2013 01:48 7,2 C 88 % 0,0 l/m 0,0 km/h (0 Bft) W-NW 292 5,3 C 7,1 C 0,0 km/h (0 Bft)
18.04.2013 01:53 7,4 C 88 % 0,0 l/m 0,0 km/h (0 Bft) N 360 5,5 C 7,1 C 0,0 km/h (0 Bft)
18.04.2013 01:58 7,3 C 88 % 0,0 l/m 0,0 km/h (0 Bft) S-SW 202 5,4 C 7,0 C 0,0 km/h (0 Bft)
18.04.2013 02:03 7,4 C 88 % 0,0 l/m 0,0 km/h (0 Bft) W-NW 292 5,5 C 7,0 C 0,0 km/h (0 Bft)
18.04.2013 02:08 7,4 C 88 % 0,0 l/m 0,0 km/h (0 Bft) W 270 5,5 C 7,1 C 0,0 km/h (0 Bft)
18.04.2013 02:13 7,5 C 88 % 0,0 l/m 0,0 km/h (0 Bft) W-SW 247 5,6 C 7,1 C 0,0 km/h (0 Bft)
18.04.2013 02:18 7,5 C 88 % 0,0 l/m 0,0 km/h (0 Bft) W-SW 247 5,6 C 7,1 C 0,0 km/h (0 Bft)
18.04.2013 02:40 7,7 C 87 % 0,0 l/m 0,0 km/h (0 Bft) S-SO 157 5,7 C 7,1 C 0,0 km/h (0 Bft)
18.04.2013 02:45 7,8 C 87 % 0,0 l/m 0,0 km/h (0 Bft) SO 135 5,8 C 6,9 C 0,0 km/h (0 Bft)
18.04.2013 02:50 7,3 C 86 % 0,0 l/m 0,0 km/h (0 Bft) SO 135 5,1 C 6,8 C 2,1 km/h (1 Bft)
18.04.2013 02:55 7,2 C 86 % 0,0 l/m 0,0 km/h (0 Bft) W-NW 292 5,0 C 6,8 C 0,0 km/h (0 Bft)
18.04.2013 02:58 7,1 C 86 % 0,0 l/m 0,0 km/h (0 Bft) O 90 4,9 C 6,8 C 0,0 km/h (0 Bft)
18.04.2013 03:00 7,1 C 86 % 0,0 l/m 0,0 km/h (0 Bft) O 90 4,9 C 6,8 C 0,0 km/h (0 Bft)
18.04.2013 03:05 7,0 C 86 % 0,0 l/m 0,0 km/h (0 Bft) O 90 4,8 C 6,8 C 0,0 km/h (0 Bft)
18.04.2013 03:08 7,0 C 86 % 0,0 l/m 0,0 km/h (0 Bft) W-NW 292 4,8 C 6,7 C 0,0 km/h (0 Bft)
18.04.2013 03:13 7,4 C 86 % 0,0 l/m 0,0 km/h (0 Bft) W 270 5,2 C 6,7 C 0,0 km/h (0 Bft)
18.04.2013 03:15 7,4 C 86 % 0,0 l/m 0,0 km/h (0 Bft) W 270 5,2 C 6,7 C 0,0 km/h (0 Bft)
18.04.2013 03:20 7,3 C 85 % 0,0 l/m 0,0 km/h (0 Bft) SO 135 4,9 C 6,7 C 0,0 km/h (0 Bft)
18.04.2013 03:25 7,1 C 85 % 0,0 l/m 0,0 km/h (0 Bft) S-SO 157 4,8 C 6,6 C 0,0 km/h (0 Bft)
18.04.2013 03:30 7,3 C 85 % 0,0 l/m 0,0 km/h (0 Bft) O 90 4,9 C 6,5 C 2,1 km/h (1 Bft)
18.04.2013 03:35 7,2 C 85 % 0,0 l/m 0,0 km/h (0 Bft) S-SO 157 4,9 C 6,5 C 0,0 km/h (0 Bft)
18.04.2013 03:40 6,8 C 85 % 0,0 l/m 0,0 km/h (0 Bft) O-SO 112 4,5 C 6,4 C 0,0 km/h (0 Bft)
18.04.2013 03:45 6,9 C 85 % 0,0 l/m 0,0 km/h (0 Bft) O-SO 112 4,6 C 6,4 C 0,0 km/h (0 Bft)
18.04.2013 03:50 6,8 C 85 % 0,0 l/m 0,3 km/h (0 Bft) O-NO 67 4,5 C 6,5 C 3,1 km/h (1 Bft)
18.04.2013 03:55 6,9 C 85 % 0,0 l/m 0,3 km/h (0 Bft) O-SO 112 4,6 C 6,6 C 0,0 km/h (0 Bft)
18.04.2013 04:00 7,1 C 84 % 0,0 l/m 0,2 km/h (0 Bft) W 270 4,6 C 6,8 C 1,6 km/h (1 Bft)
18.04.2013 04:05 7,4 C 84 % 0,0 l/m 0,5 km/h (0 Bft) O 90 4,9 C 7,0 C 3,7 km/h (1 Bft)
18.04.2013 04:10 7,7 C 84 % 0,0 l/m 0,6 km/h (0 Bft) O-NO 67 5,2 C 7,4 C 0,0 km/h (0 Bft)
18.04.2013 04:15 7,7 C 83 % 0,0 l/m 0,6 km/h (0 Bft) O-SO 112 5,0 C 7,5 C 0,0 km/h (0 Bft)
18.04.2013 04:20 7,5 C 83 % 0,0 l/m 0,5 km/h (0 Bft) O-SO 112 4,8 C 7,7 C 3,7 km/h (1 Bft)
18.04.2013 04:25 7,6 C 82 % 0,0 l/m 0,5 km/h (0 Bft) S-SO 157 4,7 C 7,7 C 0,0 km/h (0 Bft)
18.04.2013 04:30 7,6 C 82 % 0,0 l/m 0,5 km/h (0 Bft) N 360 4,7 C 7,8 C 4,5 km/h (1 Bft)
18.04.2013 04:35 7,8 C 81 % 0,0 l/m 0,3 km/h (0 Bft) O-SO 112 4,7 C 7,9 C 0,0 km/h (0 Bft)
18.04.2013 04:40 8,2 C 81 % 0,0 l/m 0,5 km/h (0 Bft) W-NW 292 5,1 C 8,1 C 0,0 km/h (0 Bft)
18.04.2013 04:45 8,4 C 80 % 0,0 l/m 0,3 km/h (0 Bft) S-SW 202 5,2 C 8,3 C 0,0 km/h (0 Bft)
18.04.2013 04:50 8,8 C 79 % 0,0 l/m 0,2 km/h (0 Bft) SO 135 5,4 C 8,6 C 0,0 km/h (0 Bft)
18.04.2013 04:55 8,7 C 79 % 0,0 l/m 0,2 km/h (0 Bft) W 270 5,3 C 8,6 C 0,0 km/h (0 Bft)
18.04.2013 05:00 8,9 C 78 % 0,0 l/m 0,2 km/h (0 Bft) S 180 5,3 C 8,6 C 0,0 km/h (0 Bft)
18.04.2013 05:05 8,7 C 77 % 0,0 l/m 0,3 km/h (0 Bft) S 180 4,9 C 8,6 C 1,8 km/h (1 Bft)
18.04.2013 05:10 8,6 C 77 % 0,0 l/m 0,6 km/h (0 Bft) SO 135 4,8 C 8,6 C 3,9 km/h (1 Bft)
18.04.2013 05:15 8,7 C 76 % 0,0 l/m 1,0 km/h (0 Bft) NW 315 4,7 C 8,6 C 0,0 km/h (0 Bft)
18.04.2013 05:20 8,6 C 76 % 0,0 l/m 1,1 km/h (1 Bft) NO 45 4,6 C 8,6 C 0,0 km/h (0 Bft)
18.04.2013 05:25 8,7 C 76 % 0,0 l/m 0,8 km/h (0 Bft) W-NW 292 4,7 C 8,6 C 2,4 km/h (1 Bft)
18.04.2013 05:30 8,4 C 75 % 0,0 l/m 1,1 km/h (1 Bft) N-NW 337 4,2 C 8,6 C 2,1 km/h (1 Bft)
18.04.2013 05:35 8,3 C 76 % 0,0 l/m 1,0 km/h (0 Bft) N 360 4,3 C 8,5 C 0,0 km/h (0 Bft)
18.04.2013 05:40 8,0 C 76 % 0,0 l/m 0,5 km/h (0 Bft) O-SO 112 4,0 C 8,2 C 0,0 km/h (0 Bft)
18.04.2013 05:45 7,7 C 76 % 0,0 l/m 0,3 km/h (0 Bft) W-SW 247 3,7 C 8,0 C 0,0 km/h (0 Bft)
18.04.2013 05:50 7,1 C 76 % 0,0 l/m 0,2 km/h (0 Bft) O 90 3,2 C 7,6 C 0,0 km/h (0 Bft)
18.04.2013 05:55 7,3 C 77 % 0,0 l/m 0,0 km/h (0 Bft) W-NW 292 3,5 C 7,3 C 0,0 km/h (0 Bft)
18.04.2013 06:00 7,3 C 78 % 0,0 l/m 0,5 km/h (0 Bft) NO 45 3,7 C 7,2 C 3,4 km/h (1 Bft)
18.04.2013 06:05 7,4 C 78 % 0,0 l/m 0,8 km/h (0 Bft) N 360 3,8 C 7,3 C 0,0 km/h (0 Bft)
18.04.2013 06:10 7,3 C 79 % 0,0 l/m 0,8 km/h (0 Bft) W 270 3,9 C 7,1 C 0,0 km/h (0 Bft)
18.04.2013 06:15 7,2 C 79 % 0,0 l/m 0,3 km/h (0 Bft) W 270 3,8 C 7,0 C 0,0 km/h (0 Bft)
18.04.2013 06:20 7,0 C 79 % 0,0 l/m 0,0 km/h (0 Bft) S-SW 202 3,6 C 6,8 C 0,0 km/h (0 Bft)
18.04.2013 06:25 7,0 C 79 % 0,0 l/m 0,3 km/h (0 Bft) W-SW 247 3,6 C 6,8 C 1,6 km/h (1 Bft)
18.04.2013 06:30 6,9 C 80 % 0,0 l/m 0,3 km/h (0 Bft) W 270 3,7 C 6,8 C 0,0 km/h (0 Bft)
18.04.2013 06:35 7,0 C 80 % 0,0 l/m 0,3 km/h (0 Bft) SO 135 3,8 C 6,8 C 0,0 km/h (0 Bft)
18.04.2013 06:40 7,5 C 81 % 0,0 l/m 0,8 km/h (0 Bft) W-NW 292 4,5 C 7,3 C 0,0 km/h (0 Bft)
18.04.2013 06:45 8,0 C 81 % 0,0 l/m 0,6 km/h (0 Bft) S 180 4,9 C 7,7 C 0,0 km/h (0 Bft)
18.04.2013 06:50 8,0 C 80 % 0,0 l/m 0,6 km/h (0 Bft) W-NW 292 4,8 C 8,3 C 0,0 km/h (0 Bft)
18.04.2013 06:55 8,7 C 80 % 0,0 l/m 1,0 km/h (0 Bft) W-NW 292 5,4 C 8,8 C 2,1 km/h (1 Bft)
18.04.2013 07:00 9,4 C 77 % 0,0 l/m 1,4 km/h (1 Bft) W-NW 292 5,6 C 9,5 C 6,0 km/h (2 Bft)
18.04.2013 07:05 9,4 C 76 % 0,0 l/m 1,8 km/h (1 Bft) N-NW 337 5,4 C 9,9 C 0,0 km/h (0 Bft)
18.04.2013 07:10 8,8 C 76 % 0,0 l/m 1,1 km/h (1 Bft) N 360 4,8 C 9,9 C 3,2 km/h (1 Bft)
18.04.2013 07:15 8,5 C 76 % 0,0 l/m 0,6 km/h (0 Bft) S-SW 202 4,5 C 9,5 C 0,0 km/h (0 Bft)
18.04.2013 07:20 8,5 C 76 % 0,0 l/m 0,3 km/h (0 Bft) W-SW 247 4,5 C 9,5 C 0,0 km/h (0 Bft)
18.04.2013 07:25 8,4 C 76 % 0,0 l/m 0,0 km/h (0 Bft) W-SW 247 4,4 C 9,7 C 0,0 km/h (0 Bft)
18.04.2013 07:30 8,4 C 76 % 0,0 l/m 0,0 km/h (0 Bft) SW 225 4,4 C 10,3 C 0,0 km/h (0 Bft)
18.04.2013 07:35 8,5 C 76 % 0,0 l/m 0,0 km/h (0 Bft) NW 315 4,5 C 10,5 C 0,0 km/h (0 Bft)
18.04.2013 07:40 8,7 C 76 % 0,0 l/m 0,0 km/h (0 Bft) W-SW 247 4,7 C 11,5 C 0,0 km/h (0 Bft)
18.04.2013 07:45 9,4 C 76 % 0,0 l/m 0,0 km/h (0 Bft) W-SW 247 5,4 C 12,3 C 0,0 km/h (0 Bft)
18.04.2013 07:50 12,7 C 72 % 0,0 l/m 0,3 km/h (0 Bft) W-NW 292 7,8 C 14,3 C 1,9 km/h (1 Bft)
18.04.2013 07:55 14,7 C 67 % 0,0 l/m 0,5 km/h (0 Bft) NW 315 8,6 C 15,5 C 0,0 km/h (0 Bft)
18.04.2013 08:00 16,4 C 62 % 0,0 l/m 0,5 km/h (0 Bft) O-NO 67 9,1 C 17,4 C 2,4 km/h (1 Bft)
18.04.2013 08:05 17,2 C 60 % 0,0 l/m 0,5 km/h (0 Bft) O-SO 112 9,4 C 18,5 C 0,0 km/h (0 Bft)
18.04.2013 08:10 18,1 C 58 % 0,0 l/m 0,3 km/h (0 Bft) O-NO 67 9,7 C 19,6 C 0,0 km/h (0 Bft)
18.04.2013 08:15 18,9 C 54 % 0,0 l/m 0,5 km/h (0 Bft) NW 315 9,4 C 20,4 C 0,0 km/h (0 Bft)
18.04.2013 08:20 19,2 C 52 % 0,0 l/m 0,5 km/h (0 Bft) NW 315 9,1 C 21,1 C 0,0 km/h (0 Bft)
18.04.2013 08:25 19,3 C 51 % 0,0 l/m 1,0 km/h (0 Bft) S 180 8,9 C 21,3 C 1,9 km/h (1 Bft)
18.04.2013 08:30 19,4 C 50 % 0,0 l/m 1,0 km/h (0 Bft) W-NW 292 8,7 C 21,6 C 2,7 km/h (1 Bft)
18.04.2013 08:35 20,5 C 49 % 0,0 l/m 0,6 km/h (0 Bft) N-NW 337 9,4 C 22,4 C 2,3 km/h (1 Bft)
18.04.2013 08:40 21,5 C 48 % 0,0 l/m 0,6 km/h (0 Bft) N-NW 337 10,0 C 23,8 C 2,1 km/h (1 Bft)
18.04.2013 08:45 21,4 C 45 % 0,0 l/m 0,3 km/h (0 Bft) NW 315 9,0 C 24,2 C 3,1 km/h (1 Bft)
18.04.2013 08:50 21,5 C 48 % 0,0 l/m 0,5 km/h (0 Bft) N-NW 337 10,0 C 24,4 C 0,0 km/h (0 Bft)
18.04.2013 08:55 21,7 C 47 % 0,0 l/m 1,0 km/h (0 Bft) N-NO 22 9,9 C 24,8 C 4,0 km/h (1 Bft)
18.04.2013 09:00 21,6 C 46 % 0,0 l/m 1,3 km/h (1 Bft) N-NW 337 9,5 C 25,0 C 3,4 km/h (1 Bft)
18.04.2013 09:05 21,6 C 45 % 0,0 l/m 1,8 km/h (1 Bft) N 360 9,2 C 24,8 C 4,2 km/h (1 Bft)
18.04.2013 09:10 21,9 C 45 % 0,0 l/m 1,9 km/h (1 Bft) N-NO 22 9,4 C 24,3 C 0,0 km/h (0 Bft)
18.04.2013 09:15 22,7 C 44 % 0,0 l/m 2,1 km/h (1 Bft) N 360 9,8 C 24,7 C 4,0 km/h (1 Bft)
18.04.2013 09:20 22,9 C 42 % 0,0 l/m 2,7 km/h (1 Bft) N-NO 22 9,3 C 24,9 C 9,3 km/h (2 Bft)
18.04.2013 09:25 23,6 C 40 % 0,0 l/m 4,0 km/h (1 Bft) O 90 9,2 C 25,1 C 9,8 km/h (2 Bft)
18.04.2013 09:30 22,4 C 39 % 0,0 l/m 5,6 km/h (1 Bft) NO 45 7,8 C 24,5 C 11,4 km/h (2 Bft)
18.04.2013 09:35 22,5 C 43 % 0,0 l/m 6,0 km/h (2 Bft) NO 45 9,3 C 23,9 C 2,7 km/h (1 Bft)
18.04.2013 09:40 23,3 C 42 % 0,0 l/m 4,7 km/h (1 Bft) O 90 9,7 C 24,3 C 4,8 km/h (1 Bft)
18.04.2013 09:45 23,2 C 41 % 0,0 l/m 3,4 km/h (1 Bft) O-NO 67 9,2 C 25,1 C 3,1 km/h (1 Bft)
18.04.2013 09:50 22,6 C 43 % 0,0 l/m 3,7 km/h (1 Bft) NO 45 9,4 C 24,6 C 10,9 km/h (2 Bft)
18.04.2013 09:55 22,0 C 42 % 0,0 l/m 5,6 km/h (1 Bft) O 90 8,5 C 24,2 C 11,1 km/h (2 Bft)
18.04.2013 10:00 21,7 C 43 % 0,0 l/m 7,6 km/h (2 Bft) O-NO 67 8,6 C 22,8 C 12,6 km/h (3 Bft)
18.04.2013 10:05 20,8 C 44 % 0,0 l/m 7,7 km/h (2 Bft) N-NO 22 8,1 C 22,0 C 6,1 km/h (2 Bft)
18.04.2013 10:10 21,1 C 43 % 0,0 l/m 8,0 km/h (2 Bft) O 90 8,0 C 21,5 C 21,7 km/h (4 Bft)
18.04.2013 10:15 20,4 C 44 % 0,0 l/m 7,9 km/h (2 Bft) NO 45 7,7 C 21,2 C 7,1 km/h (2 Bft)
18.04.2013 10:20 22,9 C 42 % 0,0 l/m 7,6 km/h (2 Bft) NO 45 9,3 C 22,6 C 13,4 km/h (3 Bft)
18.04.2013 10:25 23,6 C 38 % 0,0 l/m 7,4 km/h (2 Bft) O 90 8,4 C 23,9 C 6,8 km/h (2 Bft)
18.04.2013 10:30 23,3 C 35 % 0,0 l/m 9,8 km/h (2 Bft) NO 45 7,0 C 24,3 C 33,5 km/h (5 Bft)
18.04.2013 10:35 23,3 C 35 % 0,0 l/m 12,4 km/h (3 Bft) NO 45 7,0 C 23,4 C 23,5 km/h (4 Bft)
18.04.2013 10:40 22,6 C 37 % 0,0 l/m 15,6 km/h (3 Bft) O 90 7,2 C 22,6 C 9,5 km/h (2 Bft)
18.04.2013 10:45 21,6 C 39 % 0,0 l/m 13,5 km/h (3 Bft) NO 45 7,0 C 21,6 C 21,4 km/h (4 Bft)
18.04.2013 10:50 20,7 C 41 % 0,0 l/m 10,6 km/h (2 Bft) O-NO 67 7,0 C 20,7 C 10,3 km/h (2 Bft)
18.04.2013 10:55 20,6 C 41 % 0,0 l/m 10,1 km/h (2 Bft) NO 45 6,9 C 20,3 C 14,5 km/h (3 Bft)
18.04.2013 11:00 20,6 C 43 % 0,0 l/m 9,0 km/h (2 Bft) N-NO 22 7,6 C 20,3 C 15,6 km/h (3 Bft)
18.04.2013 11:05 20,5 C 43 % 0,0 l/m 10,5 km/h (2 Bft) NO 45 7,5 C 19,7 C 13,2 km/h (3 Bft)
18.04.2013 11:10 20,3 C 43 % 0,0 l/m 12,4 km/h (3 Bft) O-NO 67 7,3 C 19,1 C 12,7 km/h (3 Bft)
18.04.2013 11:15 20,4 C 44 % 0,0 l/m 11,7 km/h (2 Bft) NO 45 7,7 C 19,3 C 7,1 km/h (2 Bft)
18.04.2013 11:20 20,4 C 45 % 0,0 l/m 10,0 km/h (2 Bft) N-NO 22 8,1 C 19,7 C 11,7 km/h (2 Bft)
18.04.2013 11:25 20,8 C 45 % 0,0 l/m 7,7 km/h (2 Bft) O-NO 67 8,4 C 20,7 C 7,6 km/h (2 Bft)
18.04.2013 11:30 20,9 C 43 % 0,0 l/m 6,9 km/h (2 Bft) O-NO 67 7,8 C 21,4 C 4,8 km/h (1 Bft)
18.04.2013 11:35 20,8 C 45 % 0,0 l/m 6,4 km/h (2 Bft) N-NO 22 8,4 C 21,7 C 4,2 km/h (1 Bft)
18.04.2013 11:40 21,4 C 44 % 0,0 l/m 6,3 km/h (2 Bft) O 90 8,6 C 22,0 C 6,1 km/h (2 Bft)
18.04.2013 11:45 22,2 C 41 % 0,0 l/m 7,2 km/h (2 Bft) NO 45 8,3 C 22,7 C 12,7 km/h (3 Bft)
18.04.2013 11:50 21,4 C 41 % 0,0 l/m 8,0 km/h (2 Bft) N-NO 22 7,6 C 22,2 C 9,3 km/h (2 Bft)
18.04.2013 11:55 21,0 C 42 % 0,0 l/m 8,4 km/h (2 Bft) N 360 7,6 C 21,7 C 10,0 km/h (2 Bft)
18.04.2013 12:00 20,7 C 43 % 0,0 l/m 7,9 km/h (2 Bft) NO 45 7,7 C 21,4 C 14,6 km/h (3 Bft)
18.04.2013 12:05 21,2 C 43 % 0,0 l/m 8,7 km/h (2 Bft) NO 45 8,1 C 20,9 C 11,7 km/h (2 Bft)
18.04.2013 12:10 24,5 C 36 % 0,0 l/m 9,3 km/h (2 Bft) N-NO 22 8,4 C 24,0 C 13,5 km/h (3 Bft)
18.04.2013 12:15 24,5 C 34 % 0,0 l/m 8,7 km/h (2 Bft) O 90 7,6 C 24,9 C 11,7 km/h (2 Bft)
18.04.2013 12:20 24,9 C 34 % 0,0 l/m 10,6 km/h (2 Bft) NO 45 7,9 C 25,2 C 15,4 km/h (3 Bft)
18.04.2013 12:25 23,6 C 35 % 0,0 l/m 10,8 km/h (2 Bft) O-NO 67 7,2 C 24,9 C 12,1 km/h (2 Bft)
18.04.2013 12:30 22,9 C 37 % 0,0 l/m 11,1 km/h (2 Bft) NO 45 7,4 C 24,1 C 20,8 km/h (4 Bft)
18.04.2013 12:35 22,2 C 39 % 0,0 l/m 11,7 km/h (2 Bft) NO 45 7,6 C 22,6 C 16,4 km/h (3 Bft)
18.04.2013 12:40 23,8 C 37 % 0,0 l/m 11,7 km/h (2 Bft) N-NO 22 8,2 C 22,1 C 10,9 km/h (2 Bft)
18.04.2013 12:45 24,5 C 36 % 0,0 l/m 10,0 km/h (2 Bft) O-SO 112 8,4 C 24,3 C 13,0 km/h (3 Bft)
18.04.2013 12:50 22,8 C 41 % 0,0 l/m 9,3 km/h (2 Bft) NO 45 8,9 C 23,9 C 4,2 km/h (1 Bft)
18.04.2013 12:55 22,9 C 39 % 0,0 l/m 9,5 km/h (2 Bft) NO 45 8,2 C 23,6 C 15,4 km/h (3 Bft)
18.04.2013 13:00 22,2 C 40 % 0,0 l/m 9,2 km/h (2 Bft) NO 45 8,0 C 22,8 C 13,7 km/h (3 Bft)
18.04.2013 13:05 21,7 C 41 % 0,0 l/m 10,5 km/h (2 Bft) O 90 7,9 C 21,8 C 14,6 km/h (3 Bft)
18.04.2013 13:10 21,6 C 44 % 0,0 l/m 10,8 km/h (2 Bft) O-NO 67 8,8 C 21,1 C 9,0 km/h (2 Bft)
18.04.2013 13:15 22,2 C 42 % 0,0 l/m 10,0 km/h (2 Bft) N 360 8,7 C 21,5 C 12,9 km/h (3 Bft)
18.04.2013 13:20 21,8 C 43 % 0,0 l/m 10,9 km/h (2 Bft) NO 45 8,7 C 21,4 C 13,2 km/h (3 Bft)
18.04.2013 13:25 21,6 C 44 % 0,0 l/m 11,3 km/h (2 Bft) N-NO 22 8,8 C 20,8 C 10,1 km/h (2 Bft)
18.04.2013 13:30 21,3 C 44 % 0,0 l/m 11,6 km/h (2 Bft) NO 45 8,5 C 20,4 C 20,3 km/h (4 Bft)
18.04.2013 13:35 21,3 C 44 % 0,0 l/m 11,7 km/h (2 Bft) NO 45 8,5 C 20,3 C 15,9 km/h (3 Bft)
18.04.2013 13:40 21,7 C 46 % 0,0 l/m 8,7 km/h (2 Bft) NO 45 9,6 C 21,3 C 7,6 km/h (2 Bft)
18.04.2013 13:45 21,7 C 45 % 0,0 l/m 7,1 km/h (2 Bft) O 90 9,2 C 22,2 C 12,9 km/h (3 Bft)
18.04.2013 13:50 21,8 C 45 % 0,0 l/m 7,7 km/h (2 Bft) O 90 9,3 C 22,3 C 17,1 km/h (3 Bft)
18.04.2013 13:55 21,7 C 45 % 0,0 l/m 9,8 km/h (2 Bft) SO 135 9,2 C 21,7 C 9,5 km/h (2 Bft)
18.04.2013 14:00 22,3 C 45 % 0,0 l/m 10,9 km/h (2 Bft) S-SW 202 9,8 C 22,2 C 12,1 km/h (2 Bft)
18.04.2013 14:05 21,7 C 44 % 0,0 l/m 10,8 km/h (2 Bft) N-NO 22 8,9 C 22,0 C 10,9 km/h (2 Bft)
18.04.2013 14:10 22,9 C 43 % 0,0 l/m 11,4 km/h (2 Bft) NO 45 9,6 C 22,2 C 12,1 km/h (2 Bft)
18.04.2013 14:15 23,9 C 40 % 0,0 l/m 11,3 km/h (2 Bft) O 90 9,5 C 23,3 C 15,8 km/h (3 Bft)
18.04.2013 14:20 23,7 C 38 % 0,0 l/m 12,2 km/h (2 Bft) O-NO 67 8,5 C 24,0 C 18,8 km/h (3 Bft)
18.04.2013 14:25 23,7 C 38 % 0,0 l/m 14,0 km/h (3 Bft) O 90 8,5 C 23,6 C 11,7 km/h (2 Bft)
18.04.2013 14:30 23,5 C 38 % 0,0 l/m 15,1 km/h (3 Bft) O-NO 67 8,4 C 23,3 C 30,4 km/h (5 Bft)
18.04.2013 14:35 23,8 C 38 % 0,0 l/m 13,2 km/h (3 Bft) N-NO 22 8,6 C 23,5 C 4,5 km/h (1 Bft)
18.04.2013 14:40 23,9 C 38 % 0,0 l/m 10,0 km/h (2 Bft) NO 45 8,7 C 24,9 C 12,1 km/h (2 Bft)
18.04.2013 14:45 23,4 C 38 % 0,0 l/m 10,1 km/h (2 Bft) O 90 8,3 C 24,6 C 13,5 km/h (3 Bft)
18.04.2013 14:50 23,8 C 38 % 0,0 l/m 11,4 km/h (2 Bft) SO 135 8,6 C 24,1 C 10,9 km/h (2 Bft)
18.04.2013 14:55 23,9 C 36 % 0,0 l/m 10,0 km/h (2 Bft) O-NO 67 7,9 C 24,8 C 13,4 km/h (3 Bft)
18.04.2013 15:00 23,7 C 36 % 0,0 l/m 9,8 km/h (2 Bft) NO 45 7,7 C 24,6 C 14,8 km/h (3 Bft)
18.04.2013 15:05 23,9 C 38 % 0,0 l/m 10,3 km/h (2 Bft) NO 45 8,7 C 24,8 C 12,1 km/h (2 Bft)
18.04.2013 15:10 24,2 C 35 % 0,0 l/m 9,2 km/h (2 Bft) O 90 7,8 C 25,4 C 10,5 km/h (2 Bft)
18.04.2013 15:15 23,8 C 36 % 0,0 l/m 9,3 km/h (2 Bft) NO 45 7,8 C 25,3 C 9,5 km/h (2 Bft)
18.04.2013 15:20 24,3 C 36 % 0,0 l/m 10,5 km/h (2 Bft) NO 45 8,3 C 25,0 C 17,4 km/h (3 Bft)
18.04.2013 15:25 23,9 C 37 % 0,0 l/m 10,6 km/h (2 Bft) O-NO 67 8,3 C 24,9 C 10,3 km/h (2 Bft)
18.04.2013 15:30 23,3 C 37 % 0,0 l/m 9,3 km/h (2 Bft) O-SO 112 7,8 C 25,0 C 6,9 km/h (2 Bft)
18.04.2013 15:35 24,3 C 35 % 0,0 l/m 7,1 km/h (2 Bft) NO 45 7,8 C 25,6 C 7,6 km/h (2 Bft)
18.04.2013 15:40 24,0 C 35 % 0,0 l/m 7,7 km/h (2 Bft) N-NO 22 7,6 C 26,0 C 13,2 km/h (3 Bft)
18.04.2013 15:45 24,0 C 35 % 0,0 l/m 9,3 km/h (2 Bft) NO 45 7,6 C 25,7 C 16,9 km/h (3 Bft)
18.04.2013 15:50 24,0 C 35 % 0,0 l/m 9,7 km/h (2 Bft) O 90 7,6 C 25,3 C 18,5 km/h (3 Bft)
18.04.2013 15:55 24,1 C 35 % 0,0 l/m 10,1 km/h (2 Bft) NO 45 7,7 C 25,3 C 14,0 km/h (3 Bft)
18.04.2013 16:00 24,1 C 35 % 0,0 l/m 9,3 km/h (2 Bft) O-SO 112 7,7 C 25,4 C 7,7 km/h (2 Bft)
18.04.2013 16:05 24,6 C 36 % 0,0 l/m 7,2 km/h (2 Bft) O-NO 67 8,5 C 26,1 C 10,6 km/h (2 Bft)
18.04.2013 16:10 24,4 C 35 % 0,0 l/m 5,6 km/h (1 Bft) O-SO 112 7,9 C 26,5 C 5,5 km/h (1 Bft)
18.04.2013 16:15 24,3 C 34 % 0,0 l/m 6,4 km/h (2 Bft) NO 45 7,4 C 26,4 C 8,9 km/h (2 Bft)
18.04.2013 16:20 24,2 C 35 % 0,0 l/m 6,4 km/h (2 Bft) O-NO 67 7,8 C 25,9 C 9,0 km/h (2 Bft)
18.04.2013 16:25 23,9 C 35 % 0,0 l/m 7,7 km/h (2 Bft) O-SO 112 7,5 C 25,1 C 13,4 km/h (3 Bft)
18.04.2013 16:30 23,7 C 37 % 0,0 l/m 8,7 km/h (2 Bft) O-NO 67 8,1 C 23,9 C 6,3 km/h (2 Bft)
18.04.2013 16:35 23,5 C 37 % 0,0 l/m 7,7 km/h (2 Bft) O 90 8,0 C 23,8 C 10,0 km/h (2 Bft)
18.04.2013 16:40 23,5 C 36 % 0,0 l/m 8,4 km/h (2 Bft) NO 45 7,6 C 23,1 C 12,6 km/h (3 Bft)
18.04.2013 16:45 23,8 C 37 % 0,0 l/m 7,6 km/h (2 Bft) O-SO 112 8,2 C 23,5 C 4,3 km/h (1 Bft)
18.04.2013 16:50 23,6 C 38 % 0,0 l/m 6,3 km/h (2 Bft) O-SO 112 8,4 C 23,9 C 12,1 km/h (2 Bft)
18.04.2013 16:55 23,8 C 37 % 0,0 l/m 7,7 km/h (2 Bft) O-NO 67 8,2 C 23,6 C 5,8 km/h (2 Bft)
18.04.2013 17:00 23,8 C 37 % 0,0 l/m 8,9 km/h (2 Bft) O 90 8,2 C 23,5 C 8,7 km/h (2 Bft)
18.04.2013 17:05 23,7 C 37 % 0,0 l/m 9,0 km/h (2 Bft) O 90 8,1 C 23,7 C 12,9 km/h (3 Bft)
18.04.2013 17:10 23,9 C 38 % 0,0 l/m 8,7 km/h (2 Bft) O-SO 112 8,7 C 24,1 C 7,9 km/h (2 Bft)
18.04.2013 17:15 23,8 C 37 % 0,0 l/m 8,0 km/h (2 Bft) O 90 8,2 C 24,6 C 10,8 km/h (2 Bft)
18.04.2013 17:20 23,0 C 38 % 0,0 l/m 9,0 km/h (2 Bft) O 90 7,9 C 24,6 C 15,4 km/h (3 Bft)
18.04.2013 17:25 22,9 C 39 % 0,0 l/m 9,8 km/h (2 Bft) NO 45 8,2 C 24,1 C 13,4 km/h (3 Bft)
18.04.2013 17:30 23,2 C 39 % 0,0 l/m 9,2 km/h (2 Bft) O 90 8,5 C 24,5 C 9,8 km/h (2 Bft)
18.04.2013 17:35 22,8 C 39 % 0,0 l/m 9,3 km/h (2 Bft) O-NO 67 8,1 C 24,7 C 14,3 km/h (3 Bft)
18.04.2013 17:40 21,9 C 41 % 0,0 l/m 9,0 km/h (2 Bft) O 90 8,0 C 23,6 C 7,9 km/h (2 Bft)
18.04.2013 17:45 21,7 C 43 % 0,0 l/m 6,9 km/h (2 Bft) O 90 8,6 C 23,5 C 4,2 km/h (1 Bft)
18.04.2013 17:50 21,5 C 44 % 0,0 l/m 4,2 km/h (1 Bft) O-SO 112 8,7 C 23,0 C 3,2 km/h (1 Bft)
18.04.2013 17:55 21,4 C 44 % 0,0 l/m 4,3 km/h (1 Bft) O-NO 67 8,6 C 22,7 C 7,6 km/h (2 Bft)
18.04.2013 18:00 21,2 C 46 % 0,0 l/m 5,3 km/h (1 Bft) O-SO 112 9,1 C 22,3 C 8,7 km/h (2 Bft)
18.04.2013 18:05 20,8 C 47 % 0,0 l/m 5,6 km/h (1 Bft) O 90 9,1 C 22,0 C 7,4 km/h (2 Bft)
18.04.2013 18:10 20,5 C 48 % 0,0 l/m 5,0 km/h (1 Bft) NO 45 9,1 C 21,7 C 3,2 km/h (1 Bft)
18.04.2013 18:15 20,6 C 49 % 0,0 l/m 3,5 km/h (1 Bft) NO 45 9,5 C 22,0 C 2,3 km/h (1 Bft)
18.04.2013 18:20 20,2 C 49 % 0,0 l/m 1,4 km/h (1 Bft) N 360 9,1 C 22,2 C 0,0 km/h (0 Bft)
18.04.2013 18:25 20,1 C 50 % 0,0 l/m 0,6 km/h (0 Bft) N 360 9,3 C 22,1 C 0,0 km/h (0 Bft)
18.04.2013 18:30 20,3 C 51 % 0,0 l/m 0,5 km/h (0 Bft) W 270 9,8 C 23,8 C 2,7 km/h (1 Bft)
18.04.2013 18:35 20,5 C 50 % 0,0 l/m 0,8 km/h (0 Bft) N-NW 337 9,7 C 24,6 C 1,8 km/h (1 Bft)
18.04.2013 18:40 20,4 C 51 % 0,0 l/m 1,4 km/h (1 Bft) N 360 9,9 C 25,4 C 1,8 km/h (1 Bft)
18.04.2013 18:45 20,4 C 51 % 0,0 l/m 1,4 km/h (1 Bft) O-SO 112 9,9 C 24,7 C 3,2 km/h (1 Bft)
18.04.2013 18:50 20,4 C 51 % 0,0 l/m 2,6 km/h (1 Bft) O-SO 112 9,9 C 23,3 C 9,3 km/h (2 Bft)
18.04.2013 18:55 20,4 C 49 % 0,0 l/m 4,0 km/h (1 Bft) O 90 9,3 C 22,6 C 8,4 km/h (2 Bft)
18.04.2013 19:00 20,1 C 51 % 0,0 l/m 5,1 km/h (1 Bft) N-NO 22 9,6 C 21,9 C 2,6 km/h (1 Bft)
18.04.2013 19:05 20,0 C 52 % 0,0 l/m 4,2 km/h (1 Bft) O-NO 67 9,8 C 21,5 C 6,3 km/h (2 Bft)
18.04.2013 19:10 19,7 C 52 % 0,0 l/m 3,2 km/h (1 Bft) N 360 9,6 C 21,1 C 3,1 km/h (1 Bft)
18.04.2013 19:15 19,5 C 53 % 0,0 l/m 3,2 km/h (1 Bft) N-NW 337 9,7 C 20,9 C 2,6 km/h (1 Bft)
18.04.2013 19:20 19,3 C 53 % 0,0 l/m 1,9 km/h (1 Bft) N-NW 337 9,5 C 20,4 C 1,8 km/h (1 Bft)
18.04.2013 19:25 19,1 C 54 % 0,0 l/m 1,4 km/h (1 Bft) N-NW 337 9,6 C 20,1 C 2,1 km/h (1 Bft)
18.04.2013 19:30 18,9 C 55 % 1,4 l/m 1,3 km/h (1 Bft) W-SW 247 9,7 C 19,8 C 0,0 km/h (0 Bft)
18.04.2013 19:35 18,9 C 55 % 0,0 l/m 0,8 km/h (0 Bft) O-SO 112 9,7 C 20,3 C 1,9 km/h (1 Bft)
18.04.2013 19:40 18,9 C 54 % 2,7 l/m 1,4 km/h (1 Bft) O-SO 112 9,4 C 21,1 C 1,8 km/h (1 Bft)
18.04.2013 19:45 18,8 C 54 % 2,7 l/m 1,6 km/h (1 Bft) S 180 9,3 C 21,3 C 2,3 km/h (1 Bft)
18.04.2013 19:50 18,7 C 54 % 0,0 l/m 1,8 km/h (1 Bft) O-SO 112 9,2 C 21,0 C 2,6 km/h (1 Bft)
18.04.2013 19:55 18,5 C 55 % 0,0 l/m 2,3 km/h (1 Bft) O 90 9,3 C 20,3 C 4,0 km/h (1 Bft)
18.04.2013 20:00 18,3 C 56 % 0,0 l/m 3,5 km/h (1 Bft) O 90 9,4 C 19,5 C 4,3 km/h (1 Bft)
18.04.2013 20:05 18,2 C 55 % 3,4 l/m 3,5 km/h (1 Bft) O-SO 112 9,0 C 19,1 C 2,7 km/h (1 Bft)
18.04.2013 20:10 17,8 C 56 % 0,0 l/m 3,1 km/h (1 Bft) O 90 8,9 C 18,5 C 4,0 km/h (1 Bft)
18.04.2013 20:15 17,6 C 56 % 0,0 l/m 3,4 km/h (1 Bft) O 90 8,7 C 18,1 C 4,2 km/h (1 Bft)
18.04.2013 20:20 17,7 C 55 % 0,0 l/m 3,5 km/h (1 Bft) O-NO 67 8,5 C 17,6 C 5,6 km/h (1 Bft)
18.04.2013 20:25 17,4 C 56 % 0,0 l/m 4,2 km/h (1 Bft) O-NO 67 8,5 C 17,5 C 6,3 km/h (2 Bft)
18.04.2013 20:30 17,0 C 58 % 0,0 l/m 5,1 km/h (1 Bft) O 90 8,7 C 17,1 C 5,0 km/h (1 Bft)
18.04.2013 20:35 16,8 C 58 % 0,0 l/m 5,1 km/h (1 Bft) O-SO 112 8,5 C 16,9 C 5,5 km/h (1 Bft)
18.04.2013 20:40 16,3 C 60 % 0,0 l/m 4,7 km/h (1 Bft) O 90 8,5 C 16,4 C 5,3 km/h (1 Bft)
18.04.2013 20:45 15,7 C 64 % 0,0 l/m 3,5 km/h (1 Bft) O 90 8,9 C 16,0 C 1,8 km/h (1 Bft)
18.04.2013 20:50 15,5 C 66 % 0,0 l/m 2,7 km/h (1 Bft) O 90 9,2 C 15,2 C 5,8 km/h (2 Bft)
18.04.2013 20:55 15,7 C 65 % 0,0 l/m 3,7 km/h (1 Bft) O 90 9,1 C 15,2 C 6,3 km/h (2 Bft)
18.04.2013 21:00 15,5 C 65 % 0,0 l/m 4,3 km/h (1 Bft) O 90 8,9 C 15,1 C 5,5 km/h (1 Bft)
18.04.2013 21:05 15,6 C 65 % 0,0 l/m 4,2 km/h (1 Bft) O-NO 67 9,0 C 15,2 C 3,9 km/h (1 Bft)
18.04.2013 21:10 15,2 C 66 % 0,0 l/m 4,3 km/h (1 Bft) O-NO 67 8,9 C 15,0 C 6,0 km/h (2 Bft)
18.04.2013 21:15 15,2 C 67 % 0,0 l/m 4,7 km/h (1 Bft) O 90 9,1 C 15,0 C 7,4 km/h (2 Bft)
18.04.2013 21:20 14,8 C 67 % 0,0 l/m 3,9 km/h (1 Bft) S-SW 202 8,7 C 14,9 C 0,0 km/h (0 Bft)
18.04.2013 21:25 14,2 C 68 % 0,0 l/m 2,7 km/h (1 Bft) SO 135 8,4 C 14,7 C 6,1 km/h (2 Bft)
18.04.2013 21:30 14,3 C 69 % 0,0 l/m 2,1 km/h (1 Bft) O-NO 67 8,7 C 14,2 C 0,0 km/h (0 Bft)
18.04.2013 21:35 13,9 C 71 % 0,0 l/m 1,6 km/h (1 Bft) NO 45 8,7 C 14,0 C 4,3 km/h (1 Bft)
18.04.2013 21:40 14,6 C 70 % 0,0 l/m 1,9 km/h (1 Bft) O-SO 112 9,2 C 14,1 C 3,9 km/h (1 Bft)
18.04.2013 21:45 14,3 C 69 % 0,0 l/m 2,3 km/h (1 Bft) W-NW 292 8,7 C 14,4 C 0,0 km/h (0 Bft)
18.04.2013 21:50 14,0 C 69 % 0,0 l/m 1,4 km/h (1 Bft) O-SO 112 8,4 C 14,2 C 2,6 km/h (1 Bft)
18.04.2013 21:55 14,3 C 70 % 0,0 l/m 1,6 km/h (1 Bft) O-SO 112 8,9 C 14,2 C 3,1 km/h (1 Bft)
18.04.2013 22:00 14,5 C 70 % 0,0 l/m 3,5 km/h (1 Bft) O-NO 67 9,1 C 14,3 C 5,1 km/h (1 Bft)
18.04.2013 22:05 14,2 C 70 % 0,0 l/m 4,5 km/h (1 Bft) O 90 8,8 C 14,3 C 5,3 km/h (1 Bft)
18.04.2013 22:10 14,0 C 71 % 0,0 l/m 4,5 km/h (1 Bft) N 360 8,8 C 14,2 C 4,8 km/h (1 Bft)
18.04.2013 22:15 14,1 C 71 % 0,0 l/m 3,9 km/h (1 Bft) S 180 8,9 C 14,2 C 1,9 km/h (1 Bft)
18.04.2013 22:20 14,2 C 71 % 0,0 l/m 3,1 km/h (1 Bft) O-NO 67 9,0 C 13,9 C 6,8 km/h (2 Bft)
18.04.2013 22:25 14,3 C 70 % 0,0 l/m 3,1 km/h (1 Bft) S-SO 157 8,9 C 14,2 C 4,8 km/h (1 Bft)
18.04.2013 22:30 14,2 C 70 % 0,0 l/m 4,7 km/h (1 Bft) S 180 8,8 C 14,5 C 6,0 km/h (2 Bft)
18.04.2013 22:35 14,3 C 72 % 0,0 l/m 4,5 km/h (1 Bft) S-SW 202 9,3 C 14,7 C 5,5 km/h (1 Bft)
18.04.2013 22:40 14,3 C 72 % 0,0 l/m 5,1 km/h (1 Bft) S 180 9,3 C 14,7 C 8,7 km/h (2 Bft)
18.04.2013 22:45 14,4 C 73 % 0,0 l/m 5,6 km/h (1 Bft) S-SO 157 9,6 C 14,9 C 5,1 km/h (1 Bft)
18.04.2013 22:50 14,6 C 73 % 0,0 l/m 6,1 km/h (2 Bft) S 180 9,8 C 15,0 C 6,1 km/h (2 Bft)
18.04.2013 22:55 14,7 C 73 % 0,0 l/m 5,6 km/h (1 Bft) S 180 9,9 C 15,1 C 9,2 km/h (2 Bft)
18.04.2013 23:00 14,7 C 72 % 0,0 l/m 5,0 km/h (1 Bft) S 180 9,7 C 15,2 C 10,8 km/h (2 Bft)
18.04.2013 23:05 14,7 C 73 % 0,0 l/m 5,6 km/h (1 Bft) SO 135 9,9 C 15,1 C 9,5 km/h (2 Bft)
18.04.2013 23:10 14,3 C 75 % 0,0 l/m 6,6 km/h (2 Bft) N-NW 337 9,9 C 14,1 C 5,6 km/h (1 Bft)
18.04.2013 23:15 14,0 C 76 % 0,0 l/m 5,8 km/h (2 Bft) O-SO 112 9,8 C 13,9 C 2,3 km/h (1 Bft)
18.04.2013 23:20 13,8 C 77 % 0,0 l/m 4,0 km/h (1 Bft) S-SO 157 9,8 C 13,5 C 6,1 km/h (2 Bft)
18.04.2013 23:25 13,7 C 78 % 0,0 l/m 3,7 km/h (1 Bft) SO 135 9,9 C 13,5 C 4,8 km/h (1 Bft)
18.04.2013 23:30 13,7 C 78 % 0,0 l/m 4,0 km/h (1 Bft) O-SO 112 9,9 C 13,5 C 3,7 km/h (1 Bft)
18.04.2013 23:35 13,7 C 78 % 0,0 l/m 2,9 km/h (1 Bft) W-SW 247 9,9 C 13,5 C 2,7 km/h (1 Bft)
18.04.2013 23:40 13,5 C 77 % 0,0 l/m 1,9 km/h (1 Bft) SO 135 9,5 C 13,5 C 2,1 km/h (1 Bft)
18.04.2013 23:45 13,5 C 77 % 0,0 l/m 1,3 km/h (1 Bft) SO 135 9,5 C 13,6 C 1,9 km/h (1 Bft)
18.04.2013 23:50 13,5 C 77 % 0,0 l/m 1,3 km/h (1 Bft) S 180 9,5 C 13,7 C 1,6 km/h (1 Bft)
18.04.2013 23:55 13,5 C 77 % 0,0 l/m 2,1 km/h (1 Bft) S 180 9,5 C 13,8 C 2,7 km/h (1 Bft)
_ Min-Zeit 03:50 16:15 - 07:45 - - 05:50 03:45 21:45
Minimum _ 6,8 C 34 % - 0,0 km/h (0 Bft) - - 3,2 C 6,4 C 0,0 km/h (0 Bft)
_ Max-Zeit 12:20 02:18 20:05 10:40 - - 08:50 16:10 10:30
Maximum _ 24,9 C 88 % 3,4 l/m 15,6 km/h
O (3 Bft)
- - 10,0 C 26,5 C 33,5 km/h
NO (5 Bft)
Durchschnitt _ 16,1 C 60 % #10,3 l/m 4,2 km/h (1 Bft) NO - 7,5 C 16,6 C 5,6 km/h (1 Bft)